Time;durP1;ratioP1;P1;durP2;ratioP2;P2;SDS_P1;SDS_P2;PMS_P1;PMS_P2;Temp;Humidity;BMP_temperature;BMP_pressure;BME280_temperature;BME280_humidity;BME280_pressure;Samples;Min_cycle;Max_cycle;Signal;HPM_P1;HPM_P2
2021/12/29 00:01:27;;;;;;;;;;;;;;;0.64;100.00;99516.06;5011207;28;20614;-73
2021/12/29 00:03:53;;;;;;;;;;;;;;;0.66;100.00;99519.38;4995415;28;19917;-73
2021/12/29 00:06:18;;;;;;;;;;;;;;;0.65;100.00;99532.38;5012272;28;20419;-72
2021/12/29 00:08:44;;;;;;;;;;;;;;;0.67;100.00;99527.91;5018165;28;19917;-71
2021/12/29 00:11:10;;;;;;;;;;;;;;;0.64;100.00;99541.03;5031050;28;19920;-71
2021/12/29 00:13:35;;;;;;;;;;;;;;;0.63;100.00;99539.41;5009523;28;19971;-74
2021/12/29 00:16:01;;;;;;;;;;;;;;;0.62;100.00;99537.75;5006188;28;20011;-72
2021/12/29 00:18:29;;;;;;;;;;;;;;;0.65;100.00;99538.34;5007506;28;20269;-72
2021/12/29 00:20:55;;;;;;;;;;;;;;;0.64;100.00;99543.63;5001796;28;19916;-72
2021/12/29 00:23:21;;;;;;;;;;;;;;;0.63;100.00;99554.91;4998750;28;20297;-71
2021/12/29 00:25:47;;;;;;;;;;;;;;;0.61;100.00;99554.19;5018691;28;20313;-73
2021/12/29 00:28:14;;;;;;;;;;;;;;;0.59;100.00;99556.88;5000859;28;20299;-72
2021/12/29 00:30:39;;;;;;;;;;;;;;;0.61;100.00;99564.50;5009926;28;19936;-72
2021/12/29 00:33:24;;;;;;;;;;;;;;;0.63;100.00;99567.78;5013219;28;20397;-70
2021/12/29 00:36:10;;;;;;;;;;;;;;;0.60;100.00;99571.41;4990753;28;19928;-74
2021/12/29 00:38:55;;;;;;;;;;;;;;;0.59;100.00;99574.94;5015497;28;20003;-70
2021/12/29 00:41:39;;;;;;;;;;;;;;;0.68;100.00;99586.31;5007389;28;19921;-71
2021/12/29 00:44:14;;;;;;;;;;;;;;;0.64;100.00;99592.66;5019973;28;19924;-71
2021/12/29 00:47:12;;;;;;;;;;;;;;;0.55;100.00;99597.56;5011565;28;19928;-73
2021/12/29 00:49:39;;;;;;;;;;;;;;;0.51;100.00;99596.13;4997708;28;19916;-73
2021/12/29 00:52:06;;;;;;;;;;;;;;;0.48;100.00;99592.94;4982157;28;19921;-72
2021/12/29 00:54:32;;;;;;;;;;;;;;;0.47;100.00;99604.19;5017292;28;19924;-71
2021/12/29 00:56:58;;;;;;;;;;;;;;;0.47;100.00;99611.94;5003999;28;20322;-72
2021/12/29 00:59:24;;;;;;;;;;;;;;;0.47;100.00;99612.78;5000708;28;19920;-72
2021/12/29 01:01:50;;;;;;;;;;;;;;;0.49;100.00;99610.06;5009870;28;19921;-72
2021/12/29 01:04:16;;;;;;;;;;;;;;;0.52;100.00;99612.44;5019852;28;19913;-73
2021/12/29 01:06:41;;;;;;;;;;;;;;;0.53;100.00;99624.41;5027723;28;19992;-72
2021/12/29 01:09:07;;;;;;;;;;;;;;;0.56;100.00;99629.34;5023714;28;20733;-72
2021/12/29 01:11:33;;;;;;;;;;;;;;;0.64;100.00;99637.38;5034683;28;19923;-74
2021/12/29 01:13:58;;;;;;;;;;;;;;;0.58;100.00;99646.38;5027851;28;19917;-72
2021/12/29 01:18:59;;;;;;;;;;;;;;;0.55;100.00;99658.66;5002983;28;19917;-72
2021/12/29 01:21:25;;;;;;;;;;;;;;;0.50;100.00;99656.41;5013446;28;19914;-71
2021/12/29 01:23:50;;;;;;;;;;;;;;;0.47;100.00;99659.22;5026104;28;19913;-72
2021/12/29 01:26:17;;;;;;;;;;;;;;;0.48;100.00;99663.44;5014847;28;20405;-74
2021/12/29 01:28:43;;;;;;;;;;;;;;;0.50;100.00;99671.88;4999422;28;19963;-73
2021/12/29 01:31:08;;;;;;;;;;;;;;;0.53;100.00;99681.19;5011851;28;20006;-73
2021/12/29 01:33:34;;;;;;;;;;;;;;;0.53;100.00;99681.19;4999707;28;19974;-73
2021/12/29 01:35:59;;;;;;;;;;;;;;;0.48;100.00;99684.06;5025061;28;20002;-72
2021/12/29 01:38:25;;;;;;;;;;;;;;;0.50;100.00;99692.53;5016578;28;19917;-73
2021/12/29 01:40:51;;;;;;;;;;;;;;;0.51;100.00;99704.50;5028278;28;19920;-72
2021/12/29 01:43:17;;;;;;;;;;;;;;;0.52;100.00;99700.16;5014542;28;19924;-73
2021/12/29 01:45:43;;;;;;;;;;;;;;;0.51;100.00;99701.94;5021148;28;19952;-73
2021/12/29 01:48:09;;;;;;;;;;;;;;;0.53;100.00;99705.22;5001717;28;19960;-72
2021/12/29 01:50:35;;;;;;;;;;;;;;;0.52;100.00;99703.56;5022556;28;19917;-73
2021/12/29 01:53:07;;;;;;;;;;;;;;;0.51;100.00;99706.25;5020774;28;19924;-73
2021/12/29 01:55:33;;;;;;;;;;;;;;;0.49;100.00;99706.38;5007232;28;19929;-72
2021/12/29 01:57:59;;;;;;;;;;;;;;;0.46;100.00;99714.31;5027211;28;19939;-72
2021/12/29 02:00:27;;;;;;;;;;;;;;;0.46;100.00;99716.91;5005944;28;19917;-71
2021/12/29 02:02:53;;;;;;;;;;;;;;;0.46;100.00;99713.50;5018575;28;19918;-72
2021/12/29 02:05:18;;;;;;;;;;;;;;;0.48;100.00;99716.78;4989207;28;19921;-72
2021/12/29 02:07:45;;;;;;;;;;;;;;;0.45;100.00;99715.22;5025743;28;19917;-72
2021/12/29 02:10:11;;;;;;;;;;;;;;;0.46;100.00;99716.91;5011111;28;20003;-74
2021/12/29 02:12:37;;;;;;;;;;;;;;;0.46;100.00;99718.66;5035471;28;20027;-73
2021/12/29 02:15:04;;;;;;;;;;;;;;;0.47;100.00;99725.44;5018458;28;20435;-73
2021/12/29 02:17:29;;;;;;;;;;;;;;;0.50;100.00;99726.06;5017843;28;19921;-72
2021/12/29 02:19:59;;;;;;;;;;;;;;;0.53;100.00;99730.22;5020198;28;19916;-73
2021/12/29 02:22:38;;;;;;;;;;;;;;;0.54;100.00;99724.91;5025669;28;20415;-73
2021/12/29 02:25:35;;;;;;;;;;;;;;;0.57;100.00;99740.19;5002326;28;19932;-73
2021/12/29 02:27:54;;;;;;;;;;;;;;;0.53;100.00;99746.50;5013654;28;19917;-72
2021/12/29 02:30:22;;;;;;;;;;;;;;;0.53;100.00;99743.94;5018851;28;19920;-71
2021/12/29 02:32:49;;;;;;;;;;;;;;;0.55;100.00;99749.00;5022188;28;20062;-72
2021/12/29 02:35:15;;;;;;;;;;;;;;;0.58;100.00;99747.03;5012084;28;19952;-72
2021/12/29 02:37:41;;;;;;;;;;;;;;;0.57;100.00;99753.09;5015665;28;19920;-74
2021/12/29 02:40:08;;;;;;;;;;;;;;;0.54;100.00;99757.66;4990442;28;20007;-72
2021/12/29 02:42:40;;;;;;;;;;;;;;;0.53;100.00;99761.19;5005791;28;20518;-71
2021/12/29 02:45:14;;;;;;;;;;;;;;;0.52;100.00;99762.91;5021352;28;19921;-73
2021/12/29 02:47:40;;;;;;;;;;;;;;;0.53;100.00;99772.31;5013660;28;19920;-72
2021/12/29 02:50:06;;;;;;;;;;;;;;;0.52;100.00;99769.84;5002282;28;19917;-72
2021/12/29 02:52:31;;;;;;;;;;;;;;;0.53;100.00;99777.47;5021982;28;19917;-72
2021/12/29 02:55:00;;;;;;;;;;;;;;;0.56;100.00;99768.69;4977114;28;20375;-72
2021/12/29 02:57:26;;;;;;;;;;;;;;;0.56;100.00;99772.09;4994293;28;19923;-70
2021/12/29 02:59:51;;;;;;;;;;;;;;;0.60;100.00;99790.75;5013558;28;19936;-72
2021/12/29 03:02:18;;;;;;;;;;;;;;;0.62;100.00;99799.22;4990151;28;19975;-75
2021/12/29 03:04:44;;;;;;;;;;;;;;;0.59;100.00;99799.44;5006205;28;19971;-71
2021/12/29 03:07:10;;;;;;;;;;;;;;;0.54;100.00;99797.16;4991411;28;20434;-74
2021/12/29 03:09:35;;;;;;;;;;;;;;;0.49;100.00;99801.84;5005692;28;19916;-72
2021/12/29 03:12:01;;;;;;;;;;;;;;;0.47;100.00;99798.53;5031579;28;19916;-72
2021/12/29 03:14:26;;;;;;;;;;;;;;;0.47;100.00;99805.44;5012751;28;19967;-72
2021/12/29 03:16:52;;;;;;;;;;;;;;;0.45;100.00;99812.47;5014843;28;19921;-73
2021/12/29 03:19:18;;;;;;;;;;;;;;;0.48;100.00;99817.44;4994985;28;19913;-73
2021/12/29 03:21:45;;;;;;;;;;;;;;;0.44;100.00;99821.97;5018379;28;19917;-74
2021/12/29 03:24:11;;;;;;;;;;;;;;;0.45;100.00;99827.94;5016455;28;20306;-73
2021/12/29 03:26:37;;;;;;;;;;;;;;;0.45;100.00;99822.78;5011408;28;20011;-71
2021/12/29 03:29:03;;;;;;;;;;;;;;;0.47;100.00;99824.34;4987651;28;19964;-71
2021/12/29 03:31:32;;;;;;;;;;;;;;;0.50;100.00;99829.28;5025475;28;19917;-72
2021/12/29 03:33:58;;;;;;;;;;;;;;;0.49;100.00;99829.38;5022862;28;19997;-72
2021/12/29 03:36:23;;;;;;;;;;;;;;;0.47;100.00;99839.84;5010411;28;20015;-73
2021/12/29 03:38:49;;;;;;;;;;;;;;;0.46;100.00;99845.91;5019940;28;20026;-74
2021/12/29 03:41:15;;;;;;;;;;;;;;;0.52;100.00;99849.81;4994000;28;19913;-73
2021/12/29 03:43:42;;;;;;;;;;;;;;;0.48;100.00;99848.38;5015912;28;19924;-71
2021/12/29 03:46:07;;;;;;;;;;;;;;;0.47;100.00;99855.31;5026135;28;20375;-73
2021/12/29 03:48:35;;;;;;;;;;;;;;;0.48;100.00;99856.94;5011458;28;20468;-72
2021/12/29 03:51:01;;;;;;;;;;;;;;;0.49;100.00;99852.59;4995223;28;19921;-73
2021/12/29 03:53:27;;;;;;;;;;;;;;;0.49;100.00;99858.63;5019667;28;20116;-72
2021/12/29 03:55:52;;;;;;;;;;;;;;;0.46;100.00;99863.16;5029043;28;20398;-73
2021/12/29 03:58:22;;;;;;;;;;;;;;;0.45;100.00;99870.03;5033598;28;19912;-73
2021/12/29 04:00:49;;;;;;;;;;;;;;;0.46;100.00;99876.06;5010965;28;20393;-72
2021/12/29 04:03:14;;;;;;;;;;;;;;;0.47;100.00;99862.19;5006900;28;19913;-73
2021/12/29 04:05:41;;;;;;;;;;;;;;;0.51;100.00;99859.34;5005407;28;19931;-73
2021/12/29 04:08:07;;;;;;;;;;;;;;;0.53;100.00;99864.41;5006008;28;19995;-74
2021/12/29 04:10:33;;;;;;;;;;;;;;;0.53;100.00;99861.81;4986244;28;20268;-73
2021/12/29 04:12:59;;;;;;;;;;;;;;;0.51;100.00;99864.50;5015876;28;19917;-73
2021/12/29 04:15:25;;;;;;;;;;;;;;;0.50;100.00;99870.56;5018963;28;20611;-74
2021/12/29 04:17:51;;;;;;;;;;;;;;;0.50;100.00;99883.47;5006718;28;19921;-73
2021/12/29 04:23:05;;;;;;;;;;;;;;;0.54;100.00;99879.75;5001166;28;20402;-72
2021/12/29 04:25:34;;;;;;;;;;;;;;;0.56;100.00;99887.41;5009143;28;19921;-72
2021/12/29 04:28:01;;;;;;;;;;;;;;;0.55;100.00;99891.75;5024029;28;19967;-71
2021/12/29 04:30:26;;;;;;;;;;;;;;;0.56;100.00;99895.94;5017845;28;19928;-70
2021/12/29 04:32:52;;;;;;;;;;;;;;;0.58;100.00;99903.59;5008803;28;19921;-73
2021/12/29 04:35:22;;;;;;;;;;;;;;;0.64;100.00;99915.25;5005345;28;20385;-73
2021/12/29 04:37:48;;;;;;;;;;;;;;;0.64;100.00;99928.16;5024563;28;19917;-74
2021/12/29 04:40:14;;;;;;;;;;;;;;;0.59;100.00;99936.25;5015495;28;19924;-71
2021/12/29 04:42:40;;;;;;;;;;;;;;;0.57;100.00;99935.50;5020710;28;19921;-73
2021/12/29 04:45:05;;;;;;;;;;;;;;;0.60;100.00;99947.38;5018817;28;19916;-74
2021/12/29 04:47:31;;;;;;;;;;;;;;;0.59;100.00;99949.13;5027604;28;19926;-72
2021/12/29 04:50:00;;;;;;;;;;;;;;;0.57;100.00;99953.59;5018470;28;19955;-73
2021/12/29 04:52:30;;;;;;;;;;;;;;;0.54;100.00;99946.84;5020646;28;19917;-73
2021/12/29 04:54:56;;;;;;;;;;;;;;;0.54;100.00;99953.78;5024005;28;19956;-73
2021/12/29 04:57:21;;;;;;;;;;;;;;;0.54;100.00;99961.50;5020229;28;19953;-72
2021/12/29 04:59:47;;;;;;;;;;;;;;;0.53;100.00;99963.28;5017351;28;19944;-72
2021/12/29 05:02:12;;;;;;;;;;;;;;;0.54;100.00;99969.25;5016889;28;20009;-72
2021/12/29 05:04:46;;;;;;;;;;;;;;;0.57;100.00;99967.31;5007911;28;19913;-72
2021/12/29 05:09:57;;;;;;;;;;;;;;;0.60;100.00;99974.00;5028183;28;19923;-74
2021/12/29 05:12:22;;;;;;;;;;;;;;;0.57;100.00;99966.47;5011582;28;19921;-73
2021/12/29 05:14:48;;;;;;;;;;;;;;;0.55;100.00;99970.91;5022356;28;19917;-72
2021/12/29 05:17:13;;;;;;;;;;;;;;;0.52;100.00;99961.59;5012934;28;19979;-73
2021/12/29 05:19:39;;;;;;;;;;;;;;;0.52;100.00;99959.03;5014937;28;19917;-72
2021/12/29 05:22:05;;;;;;;;;;;;;;;0.55;100.00;99963.19;5000735;28;19917;-74
2021/12/29 05:24:31;;;;;;;;;;;;;;;0.56;100.00;99975.13;5020874;28;20024;-74
2021/12/29 05:26:56;;;;;;;;;;;;;;;0.57;100.00;99976.81;5021308;28;19928;-72
2021/12/29 05:29:22;;;;;;;;;;;;;;;0.58;100.00;99981.03;4977160;28;19921;-71
2021/12/29 05:31:47;;;;;;;;;;;;;;;0.55;100.00;99989.81;5015415;28;20028;-72
2021/12/29 05:34:13;;;;;;;;;;;;;;;0.55;100.00;99996.72;5022340;28;20003;-73
2021/12/29 05:36:38;;;;;;;;;;;;;;;0.54;100.00;99995.06;5013787;28;19967;-73
2021/12/29 05:39:04;;;;;;;;;;;;;;;0.58;100.00;100002.53;5003067;28;19924;-72
2021/12/29 05:41:30;;;;;;;;;;;;;;;0.58;100.00;99999.09;5019720;28;19928;-74
2021/12/29 05:43:55;;;;;;;;;;;;;;;0.60;100.00;100014.47;5017179;28;20019;-72
2021/12/29 05:46:21;;;;;;;;;;;;;;;0.58;100.00;100027.47;4983656;28;19947;-71
2021/12/29 05:48:46;;;;;;;;;;;;;;;0.58;100.00;100024.91;5025672;28;19917;-74
2021/12/29 05:51:12;;;;;;;;;;;;;;;0.60;100.00;100022.22;5026407;28;19913;-71
2021/12/29 05:53:39;;;;;;;;;;;;;;;0.57;100.00;100023.25;5026917;28;19971;-72
2021/12/29 05:56:05;;;;;;;;;;;;;;;0.55;100.00;100025.13;5023462;28;20007;-73
2021/12/29 05:58:30;;;;;;;;;;;;;;;0.56;100.00;100025.00;5006740;28;20032;-71
2021/12/29 06:00:56;;;;;;;;;;;;;;;0.56;100.00;100021.59;5003574;28;20044;-73
2021/12/29 06:03:22;;;;;;;;;;;;;;;0.57;100.00;100024.06;5001128;28;20007;-71
2021/12/29 06:05:47;;;;;;;;;;;;;;;0.56;100.00;100024.16;5005823;28;19961;-74
2021/12/29 06:08:13;;;;;;;;;;;;;;;0.56;100.00;100021.59;5011198;28;20031;-73
2021/12/29 06:10:38;;;;;;;;;;;;;;;0.56;100.00;100029.34;5033245;28;19939;-72
2021/12/29 06:13:04;;;;;;;;;;;;;;;0.56;100.00;100027.56;5026743;28;19963;-74
2021/12/29 06:15:29;;;;;;;;;;;;;;;0.56;100.00;100027.56;5041025;28;19975;-73
2021/12/29 06:17:55;;;;;;;;;;;;;;;0.55;100.00;100025.13;5008406;28;19917;-73
2021/12/29 06:20:21;;;;;;;;;;;;;;;0.58;100.00;100042.97;5012226;28;19921;-71
2021/12/29 06:22:46;;;;;;;;;;;;;;;0.60;100.00;100046.28;5009298;28;19917;-74
2021/12/29 06:25:14;;;;;;;;;;;;;;;0.61;100.00;100054.84;5018625;28;19917;-73
2021/12/29 06:27:40;;;;;;;;;;;;;;;0.60;100.00;100058.34;5016583;28;19925;-73
2021/12/29 06:30:07;;;;;;;;;;;;;;;0.57;100.00;100060.22;5013105;28;19917;-73
2021/12/29 06:32:32;;;;;;;;;;;;;;;0.52;100.00;100061.44;4997984;28;20450;-72
2021/12/29 06:34:58;;;;;;;;;;;;;;;0.51;100.00;100072.66;5016055;28;19924;-73
2021/12/29 06:37:24;;;;;;;;;;;;;;;0.49;100.00;100057.31;4995664;28;19964;-72
2021/12/29 06:39:50;;;;;;;;;;;;;;;0.48;100.00;100067.72;5007229;28;19916;-74
2021/12/29 06:42:15;;;;;;;;;;;;;;;0.49;100.00;100074.53;5029266;28;19912;-74
2021/12/29 06:44:41;;;;;;;;;;;;;;;0.48;100.00;100075.47;4999280;28;20394;-74
2021/12/29 06:47:07;;;;;;;;;;;;;;;0.52;100.00;100071.75;5015771;28;19923;-73
2021/12/29 06:49:33;;;;;;;;;;;;;;;0.54;100.00;100088.78;5024848;28;19923;-73
2021/12/29 06:52:00;;;;;;;;;;;;;;;0.57;100.00;100092.94;5032105;28;19925;-73
2021/12/29 06:54:25;;;;;;;;;;;;;;;0.62;100.00;100093.44;5012531;28;20397;-75
2021/12/29 06:56:51;;;;;;;;;;;;;;;0.64;100.00;100096.78;5016412;28;19913;-72
2021/12/29 06:59:16;;;;;;;;;;;;;;;0.61;100.00;100096.97;5009774;28;19924;-72
2021/12/29 07:01:42;;;;;;;;;;;;;;;0.71;100.00;100103.19;5024020;28;19913;-75
2021/12/29 07:04:07;;;;;;;;;;;;;;;0.71;100.00;100105.78;5002769;28;19917;-73
2021/12/29 07:06:33;;;;;;;;;;;;;;;0.71;100.00;100120.44;5024390;28;19925;-73
2021/12/29 07:08:58;;;;;;;;;;;;;;;0.68;100.00;100131.81;5030284;28;19988;-74
2021/12/29 07:11:24;;;;;;;;;;;;;;;0.67;100.00;100145.63;5009761;28;19940;-73
2021/12/29 07:13:51;;;;;;;;;;;;;;;0.66;100.00;100149.16;5004392;28;19957;-72
2021/12/29 07:16:16;;;;;;;;;;;;;;;0.66;100.00;100156.03;5000666;28;20665;-72
2021/12/29 07:18:43;;;;;;;;;;;;;;;0.66;100.00;100151.72;4999559;28;20003;-73
2021/12/29 07:21:08;;;;;;;;;;;;;;;0.69;100.00;100163.59;5011880;28;19917;-72
2021/12/29 07:23:34;;;;;;;;;;;;;;;0.71;100.00;100164.31;5023488;28;19917;-73
2021/12/29 07:25:59;;;;;;;;;;;;;;;0.72;100.00;100177.13;5024306;28;19917;-73
2021/12/29 07:28:25;;;;;;;;;;;;;;;0.75;100.00;100187.28;5018101;28;19918;-74
2021/12/29 07:30:50;;;;;;;;;;;;;;;0.73;100.00;100191.69;5003615;28;20301;-73
2021/12/29 07:33:16;;;;;;;;;;;;;;;0.71;100.00;100203.03;5020132;28;19924;-73
2021/12/29 07:35:41;;;;;;;;;;;;;;;0.71;100.00;100200.47;5006100;28;19913;-72
2021/12/29 07:38:07;;;;;;;;;;;;;;;0.70;100.00;100209.97;4997083;28;19923;-71
2021/12/29 07:40:34;;;;;;;;;;;;;;;0.70;100.00;100217.72;5028825;28;19958;-72
2021/12/29 07:43:01;;;;;;;;;;;;;;;0.69;100.00;100222.97;5048837;28;20290;-73
2021/12/29 07:45:26;;;;;;;;;;;;;;;0.70;100.00;100228.03;5005856;28;19975;-72
2021/12/29 07:47:52;;;;;;;;;;;;;;;0.71;100.00;100236.59;5000344;28;19925;-74
2021/12/29 07:50:19;;;;;;;;;;;;;;;0.72;100.00;100253.75;5027328;28;20279;-71
2021/12/29 07:52:48;;;;;;;;;;;;;;;0.75;100.00;100251.81;5022807;28;19917;-74
2021/12/29 07:55:20;;;;;;;;;;;;;;;0.76;100.00;100255.22;4998034;28;19917;-73
2021/12/29 07:57:46;;;;;;;;;;;;;;;0.81;100.00;100257.50;4989481;28;20007;-73
2021/12/29 08:00:12;;;;;;;;;;;;;;;0.83;100.00;100265.97;5024674;28;19963;-73
2021/12/29 08:02:39;;;;;;;;;;;;;;;0.84;100.00;100265.91;5005815;28;19921;-73
2021/12/29 08:05:05;;;;;;;;;;;;;;;0.85;100.00;100259.81;5021439;28;20624;-72
2021/12/29 08:07:31;;;;;;;;;;;;;;;0.86;100.00;100270.97;5039862;28;19921;-74
2021/12/29 08:09:56;;;;;;;;;;;;;;;0.86;100.00;100273.56;5029519;28;20764;-71
2021/12/29 08:12:22;;;;;;;;;;;;;;;0.88;100.00;100272.53;5022530;28;20513;-73
2021/12/29 08:14:49;;;;;;;;;;;;;;;0.89;100.00;100284.53;5016579;28;19916;-73
2021/12/29 08:17:15;;;;;;;;;;;;;;;0.90;100.00;100277.59;5034848;28;19913;-73
2021/12/29 08:19:41;;;;;;;;;;;;;;;0.92;100.00;100283.50;5023890;28;19927;-72
2021/12/29 08:22:07;;;;;;;;;;;;;;;0.93;100.00;100267.09;5016221;28;19913;-73
2021/12/29 08:24:32;;;;;;;;;;;;;;;0.96;100.00;100274.63;5006075;28;20366;-72
2021/12/29 08:26:58;;;;;;;;;;;;;;;0.99;100.00;100274.44;4984501;28;19921;-72
2021/12/29 08:29:23;;;;;;;;;;;;;;;1.03;100.00;100272.50;5035775;28;20271;-72
2021/12/29 08:31:49;;;;;;;;;;;;;;;1.04;100.00;100279.34;5024645;28;19963;-72
2021/12/29 08:34:15;;;;;;;;;;;;;;;1.06;100.00;100288.63;5013749;28;20352;-73
2021/12/29 08:36:41;;;;;;;;;;;;;;;1.07;100.00;100279.94;4992858;28;19921;-72
2021/12/29 08:39:06;;;;;;;;;;;;;;;1.10;100.00;100277.16;5026945;28;19914;-73
2021/12/29 08:41:32;;;;;;;;;;;;;;;1.12;100.00;100285.66;5029052;28;19917;-73
2021/12/29 08:43:57;;;;;;;;;;;;;;;1.14;100.00;100282.97;4998084;28;19963;-73
2021/12/29 08:46:23;;;;;;;;;;;;;;;1.15;100.00;100279.47;5004726;28;19921;-73
2021/12/29 08:48:48;;;;;;;;;;;;;;;1.18;100.00;100284.44;5012470;28;19917;-73
2021/12/29 08:51:14;;;;;;;;;;;;;;;1.21;100.00;100286.00;5011191;28;19956;-72
2021/12/29 08:53:40;;;;;;;;;;;;;;;1.29;100.00;100294.91;5014530;28;19948;-74
2021/12/29 08:56:05;;;;;;;;;;;;;;;1.30;100.00;100295.75;5014439;28;19913;-73
2021/12/29 08:58:31;;;;;;;;;;;;;;;1.26;100.00;100292.53;4996553;28;19921;-73
2021/12/29 09:00:59;;;;;;;;;;;;;;;1.26;100.00;100299.44;5026165;28;20003;-73
2021/12/29 09:03:25;;;;;;;;;;;;;;;1.29;100.00;100288.94;5001283;28;20386;-72
2021/12/29 09:05:50;;;;;;;;;;;;;;;1.29;100.00;100287.16;4996540;28;19932;-72
2021/12/29 09:08:16;;;;;;;;;;;;;;;1.40;100.00;100298.59;5023693;28;19917;-73
2021/12/29 09:10:42;;;;;;;;;;;;;;;1.39;100.00;100308.06;5034684;28;19912;-72
2021/12/29 09:13:08;;;;;;;;;;;;;;;1.36;100.00;100310.88;5030320;28;19923;-72
2021/12/29 09:15:33;;;;;;;;;;;;;;;1.35;100.00;100312.59;5003196;28;19920;-73
2021/12/29 09:17:59;;;;;;;;;;;;;;;1.40;100.00;100324.44;5022377;28;19917;-73
2021/12/29 09:20:27;;;;;;;;;;;;;;;1.42;100.00;100317.41;5014264;28;20417;-73
2021/12/29 09:22:54;;;;;;;;;;;;;;;1.41;100.00;100324.31;5020282;28;20536;-72
2021/12/29 09:25:21;;;;;;;;;;;;;;;1.43;100.00;100316.47;5025419;28;19925;-73
2021/12/29 09:27:49;;;;;;;;;;;;;;;1.46;100.00;100326.63;4994159;28;19917;-72
2021/12/29 09:30:22;;;;;;;;;;;;;;;1.46;100.00;100327.44;5023167;28;19913;-71
2021/12/29 09:32:48;;;;;;;;;;;;;;;1.47;100.00;100331.69;4998959;28;19914;-73
2021/12/29 09:35:14;;;;;;;;;;;;;;;1.49;100.00;100340.19;5000421;28;20392;-72
2021/12/29 09:37:40;;;;;;;;;;;;;;;1.54;100.00;100345.88;5010126;28;19924;-73
2021/12/29 09:40:06;;;;;;;;;;;;;;;1.54;100.00;100351.06;5030486;28;19940;-73
2021/12/29 09:42:32;;;;;;;;;;;;;;;1.51;100.00;100360.75;5023420;28;19925;-72
2021/12/29 09:44:57;;;;;;;;;;;;;;;1.53;100.00;100354.56;5017739;28;19976;-72
2021/12/29 09:47:23;;;;;;;;;;;;;;;1.57;100.00;100357.78;4993478;28;19933;-73
2021/12/29 09:49:48;;;;;;;;;;;;;;;1.69;100.00;100354.38;5007025;28;19927;-72
2021/12/29 09:52:14;;;;;;;;;;;;;;;1.74;100.00;100357.50;5014821;28;19916;-72
2021/12/29 09:54:39;;;;;;;;;;;;;;;1.80;100.00;100361.47;5028209;28;19924;-72
2021/12/29 09:57:05;;;;;;;;;;;;;;;1.76;100.00;100354.84;5016622;28;19923;-73
2021/12/29 09:59:31;;;;;;;;;;;;;;;1.68;100.00;100355.34;5016821;28;19928;-70
2021/12/29 10:01:57;;;;;;;;;;;;;;;1.67;100.00;100352.84;5012612;28;19917;-73
2021/12/29 10:04:23;;;;;;;;;;;;;;;1.67;100.00;100348.50;5015829;28;19917;-73
2021/12/29 10:06:49;;;;;;;;;;;;;;;1.67;100.00;100342.50;5022458;28;20042;-72
2021/12/29 10:09:16;;;;;;;;;;;;;;;1.67;100.00;100348.50;5015973;28;19998;-72
2021/12/29 10:11:42;;;;;;;;;;;;;;;1.74;100.00;100343.75;5035466;28;19931;-72
2021/12/29 10:14:09;;;;;;;;;;;;;;;1.68;100.00;100349.34;5023091;28;19923;-73
2021/12/29 10:16:35;;;;;;;;;;;;;;;1.66;100.00;100357.19;5031437;28;19924;-73
2021/12/29 10:19:03;;;;;;;;;;;;;;;1.66;100.00;100358.97;5030092;28;20406;-72
2021/12/29 10:21:29;;;;;;;;;;;;;;;1.67;100.00;100358.00;5026530;28;19917;-73
2021/12/29 10:23:56;;;;;;;;;;;;;;;1.72;100.00;100369.72;5022720;28;19913;-72
2021/12/29 10:26:23;;;;;;;;;;;;;;;1.79;100.00;100377.06;5019196;28;19929;-72
2021/12/29 10:28:50;;;;;;;;;;;;;;;1.84;100.00;100383.59;4998658;28;19914;-72
2021/12/29 10:31:26;;;;;;;;;;;;;;;1.86;100.00;100388.69;5009420;28;19917;-73
2021/12/29 10:33:53;;;;;;;;;;;;;;;1.92;100.00;100385.69;5023920;28;20069;-72
2021/12/29 10:36:30;;;;;;;;;;;;;;;1.95;100.00;100395.84;5013579;28;20702;-72
2021/12/29 10:38:58;;;;;;;;;;;;;;;1.98;100.00;100392.22;5012876;28;19917;-72
2021/12/29 10:41:24;;;;;;;;;;;;;;;2.04;100.00;100391.84;5038177;28;19913;-72
2021/12/29 10:43:57;;;;;;;;;;;;;;;2.08;100.00;100383.78;5024955;28;20041;-72
2021/12/29 10:46:23;;;;;;;;;;;;;;;2.09;100.00;100387.19;5018793;28;20008;-74
2021/12/29 10:48:49;;;;;;;;;;;;;;;2.14;100.00;100382.53;4986755;28;20082;-73
2021/12/29 10:51:15;;;;;;;;;;;;;;;2.10;100.00;100375.91;5039431;28;20404;-73
2021/12/29 10:53:40;;;;;;;;;;;;;;;2.11;100.00;100377.56;5024640;28;19964;-72
2021/12/29 10:56:17;;;;;;;;;;;;;;;2.11;100.00;100383.59;5019220;28;19920;-74
2021/12/29 10:58:42;;;;;;;;;;;;;;;2.18;100.00;100384.00;4997419;28;19920;-72
2021/12/29 11:01:13;;;;;;;;;;;;;;;2.17;100.00;100381.50;5017582;28;19913;-72
2021/12/29 11:03:52;;;;;;;;;;;;;;;2.14;100.00;100378.19;5011271;28;20506;-72
2021/12/29 11:06:20;;;;;;;;;;;;;;;2.13;100.00;100376.53;5016557;28;19916;-72
2021/12/29 11:08:49;;;;;;;;;;;;;;;2.14;100.00;100377.38;5022387;28;19917;-72
2021/12/29 11:11:15;;;;;;;;;;;;;;;2.13;100.00;100381.72;5023123;28;19921;-72
2021/12/29 11:13:41;;;;;;;;;;;;;;;2.07;100.00;100376.09;5024793;28;19979;-72
2021/12/29 11:16:09;;;;;;;;;;;;;;;2.10;100.00;100375.91;5016014;28;19967;-72
2021/12/29 11:18:47;;;;;;;;;;;;;;;2.12;100.00;100379.22;5016328;28;20721;-72
2021/12/29 11:21:15;;;;;;;;;;;;;;;2.13;100.00;100376.53;5010098;28;20328;-72
2021/12/29 11:23:41;;;;;;;;;;;;;;;2.16;100.00;100378.09;5014455;28;19924;-71
2021/12/29 11:26:11;;;;;;;;;;;;;;;2.19;100.00;100398.59;5001383;28;20044;-73
2021/12/29 11:28:37;;;;;;;;;;;;;;;2.18;100.00;100402.09;5015055;28;19929;-72
2021/12/29 11:31:04;;;;;;;;;;;;;;;2.24;100.00;100403.47;5015800;28;19952;-73
2021/12/29 11:33:30;;;;;;;;;;;;;;;2.27;100.00;100395.50;5014723;28;19919;-73
2021/12/29 11:35:56;;;;;;;;;;;;;;;2.25;100.00;100405.13;5000281;28;19918;-71
2021/12/29 11:38:23;;;;;;;;;;;;;;;2.25;100.00;100400.78;5015686;28;19917;-73
2021/12/29 11:40:52;;;;;;;;;;;;;;;2.28;100.00;100398.00;5037310;28;19912;-72
2021/12/29 11:43:19;;;;;;;;;;;;;;;2.27;100.00;100393.75;4984605;28;19913;-72
2021/12/29 11:45:46;;;;;;;;;;;;;;;2.24;100.00;100393.09;4992156;28;20016;-73
2021/12/29 11:48:13;;;;;;;;;;;;;;;2.23;100.00;100405.22;4994150;28;19916;-74
2021/12/29 11:50:44;;;;;;;;;;;;;;;2.21;100.00;100394.16;5012559;28;19942;-72
2021/12/29 11:53:20;;;;;;;;;;;;;;;2.27;100.00;100400.69;5022360;28;19935;-72
2021/12/29 11:55:48;;;;;;;;;;;;;;;2.25;100.00;100400.78;5020945;28;19917;-71
2021/12/29 11:58:28;;;;;;;;;;;;;;;2.29;100.00;100416.94;5021218;28;19952;-72
2021/12/29 12:01:00;;;;;;;;;;;;;;;2.30;100.00;100421.19;5027408;28;19948;-73
2021/12/29 12:03:25;;;;;;;;;;;;;;;2.33;100.00;100424.38;4996980;28;19924;-72
2021/12/29 12:05:51;;;;;;;;;;;;;;;2.30;100.00;100423.78;5018088;28;19925;-72
2021/12/29 12:08:22;;;;;;;;;;;;;;;2.26;100.00;100415.38;5015727;28;20067;-73
2021/12/29 12:10:47;;;;;;;;;;;;;;;2.25;100.00;100416.31;5036182;28;19916;-72
2021/12/29 12:13:24;;;;;;;;;;;;;;;2.20;100.00;100428.72;5033510;28;20088;-72
2021/12/29 12:15:50;;;;;;;;;;;;;;;2.23;100.00;100433.69;4997066;28;19996;-72
2021/12/29 12:18:16;;;;;;;;;;;;;;;2.26;100.00;100443.00;5011913;28;20375;-72
2021/12/29 12:20:46;;;;;;;;;;;;;;;2.28;100.00;100459.25;4990256;28;20341;-72
2021/12/29 12:23:25;;;;;;;;;;;;;;;2.36;100.00;100474.31;5021239;28;20339;-73
2021/12/29 12:25:51;;;;;;;;;;;;;;;2.24;100.00;100475.91;5007645;28;19967;-72
2021/12/29 12:28:21;;;;;;;;;;;;;;;2.21;100.00;100487.31;5018631;28;19956;-72
2021/12/29 12:30:49;;;;;;;;;;;;;;;2.16;100.00;100493.72;5018305;28;19982;-74
2021/12/29 12:33:17;;;;;;;;;;;;;;;2.13;100.00;100503.34;5011091;28;19917;-72
2021/12/29 12:35:45;;;;;;;;;;;;;;;2.11;100.00;100497.44;5023355;28;19927;-72
2021/12/29 12:38:21;;;;;;;;;;;;;;;2.12;100.00;100491.31;5025952;28;19917;-72
2021/12/29 12:40:57;;;;;;;;;;;;;;;2.11;100.00;100496.56;5023641;28;19918;-73
2021/12/29 12:43:24;;;;;;;;;;;;;;;2.08;100.00;100497.63;4978488;28;19956;-72
2021/12/29 12:45:50;;;;;;;;;;;;;;;2.06;100.00;100494.31;5017818;28;19971;-72
2021/12/29 12:48:22;;;;;;;;;;;;;;;2.05;100.00;100492.63;5020577;28;19968;-73